createdAt,value
2023-01-05T00:01:54.195Z,10.14
2023-01-05T00:04:22.360Z,10.08
2023-01-05T00:06:50.002Z,10.09
2023-01-05T00:09:19.351Z,10.09
2023-01-05T00:12:05.821Z,10.10
2023-01-05T00:14:53.451Z,10.14
2023-01-05T00:17:42.158Z,10.11
2023-01-05T00:20:47.162Z,10.11
2023-01-05T00:23:14.747Z,10.10
2023-01-05T00:25:42.422Z,10.08
2023-01-05T00:28:10.041Z,10.06
2023-01-05T00:30:45.949Z,10.00
2023-01-05T00:33:17.486Z,10.02
2023-01-05T00:35:45.330Z,10.00
2023-01-05T00:38:13.085Z,10.07
2023-01-05T00:40:40.721Z,10.12
2023-01-05T00:43:08.204Z,10.11
2023-01-05T00:45:35.729Z,10.09
2023-01-05T00:48:03.294Z,10.04
2023-01-05T00:50:30.859Z,10.04
2023-01-05T00:52:58.344Z,10.14
2023-01-05T00:55:25.932Z,10.07
2023-01-05T00:57:53.579Z,10.04
2023-01-05T01:00:21.226Z,10.04
2023-01-05T01:02:55.053Z,9.97
2023-01-05T01:05:23.337Z,10.03
2023-01-05T01:07:50.993Z,10.07
2023-01-05T01:10:18.731Z,10.07
2023-01-05T01:12:46.281Z,10.16
2023-01-05T01:15:13.978Z,10.15
2023-01-05T01:17:42.904Z,10.00
2023-01-05T01:20:10.804Z,9.82
2023-01-05T01:22:38.441Z,9.70
2023-01-05T01:25:07.631Z,9.71
2023-01-05T01:27:35.424Z,9.78
2023-01-05T01:30:03.005Z,9.50
2023-01-05T01:32:30.548Z,9.31
2023-01-05T01:34:58.039Z,9.41
2023-01-05T01:37:25.668Z,9.33
2023-01-05T01:39:56.074Z,9.26
2023-01-05T01:42:24.312Z,9.24
2023-01-05T01:45:18.247Z,9.22
2023-01-05T01:47:59.769Z,9.31
2023-01-05T01:50:49.520Z,9.18
2023-01-05T01:53:52.151Z,9.15
2023-01-05T01:56:22.468Z,9.13
2023-01-05T01:58:50.827Z,9.09
2023-01-05T02:01:19.383Z,9.00
2023-01-05T02:03:47.639Z,8.89
2023-01-05T02:06:15.640Z,8.91
2023-01-05T02:08:43.846Z,8.90
2023-01-05T02:11:18.276Z,8.83
2023-01-05T02:14:18.512Z,8.77
2023-01-05T02:17:30.706Z,8.78
2023-01-05T02:20:28.527Z,8.71
2023-01-05T02:23:15.807Z,8.62
2023-01-05T02:26:02.118Z,8.56
2023-01-05T02:29:12.434Z,8.52
2023-01-05T02:32:04.278Z,8.64
2023-01-05T02:34:42.332Z,8.71
2023-01-05T02:37:21.841Z,8.55
2023-01-05T02:39:59.262Z,8.45
2023-01-05T02:42:30.912Z,8.49
2023-01-05T02:45:01.135Z,8.45
2023-01-05T02:47:28.661Z,8.40
2023-01-05T02:50:09.828Z,8.51
2023-01-05T02:52:46.923Z,8.55
2023-01-05T02:55:23.587Z,8.48
2023-01-05T02:58:02.529Z,8.60
2023-01-05T03:00:47.167Z,8.83
2023-01-05T03:03:30.071Z,9.01
2023-01-05T03:06:25.668Z,8.84
2023-01-05T03:09:00.421Z,8.68
2023-01-05T03:12:02.001Z,8.68
2023-01-05T03:14:43.498Z,8.71
2023-01-05T03:17:17.921Z,8.67
2023-01-05T03:19:50.698Z,8.67
2023-01-05T03:22:49.931Z,8.68
2023-01-05T03:25:40.080Z,8.78
2023-01-05T03:28:35.865Z,8.80
2023-01-05T03:31:54.569Z,8.74
2023-01-05T03:35:02.207Z,8.68
2023-01-05T03:37:44.573Z,8.66
2023-01-05T03:40:22.686Z,8.78
2023-01-05T03:42:53.224Z,8.84
2023-01-05T03:45:27.123Z,8.87
2023-01-05T03:47:56.084Z,8.82
2023-01-05T03:50:26.895Z,9.05
2023-01-05T03:52:55.020Z,9.04
2023-01-05T03:55:23.530Z,9.26
2023-01-05T03:57:53.772Z,9.18
2023-01-05T04:00:22.816Z,9.04
2023-01-05T04:02:59.389Z,8.90
2023-01-05T04:05:27.131Z,8.89
2023-01-05T04:07:55.002Z,8.95
2023-01-05T04:10:22.602Z,8.89
2023-01-05T04:12:50.099Z,8.82
2023-01-05T04:15:19.147Z,8.89
2023-01-05T04:17:47.042Z,8.92
2023-01-05T04:20:14.680Z,8.88
2023-01-05T04:22:42.887Z,8.76
2023-01-05T04:25:10.816Z,8.70
2023-01-05T04:27:39.967Z,8.60
2023-01-05T04:30:08.702Z,8.58
2023-01-05T04:32:36.359Z,8.61
2023-01-05T04:35:11.049Z,8.50
2023-01-05T04:37:40.637Z,8.54
2023-01-05T04:40:09.862Z,8.57
2023-01-05T04:42:46.361Z,8.54
2023-01-05T04:45:14.339Z,8.61
2023-01-05T04:47:41.812Z,8.84
2023-01-05T04:50:12.063Z,8.83
2023-01-05T04:52:40.510Z,8.72
2023-01-05T04:55:09.026Z,8.74
2023-01-05T04:57:37.191Z,8.97
2023-01-05T05:00:06.056Z,8.94
2023-01-05T05:02:34.993Z,8.87
2023-01-05T05:05:02.644Z,8.75
2023-01-05T05:07:30.380Z,8.78
2023-01-05T05:09:59.409Z,8.69
2023-01-05T05:12:27.236Z,8.66
2023-01-05T05:14:54.836Z,8.70
2023-01-05T05:17:22.332Z,8.62
2023-01-05T05:19:50.526Z,8.57
2023-01-05T05:22:21.083Z,8.58
2023-01-05T05:24:48.686Z,8.48
2023-01-05T05:27:16.142Z,8.38
2023-01-05T05:29:43.703Z,8.27
2023-01-05T05:32:11.446Z,8.21
2023-01-05T05:34:38.940Z,8.18
2023-01-05T05:37:06.837Z,8.22
2023-01-05T05:39:34.316Z,8.20
2023-01-05T05:42:01.834Z,7.90
2023-01-05T05:44:29.290Z,7.97
2023-01-05T05:46:58.084Z,7.84
2023-01-05T05:49:25.571Z,7.82
2023-01-05T05:51:53.116Z,7.54
2023-01-05T05:54:20.812Z,7.35
2023-01-05T05:56:48.361Z,7.38
2023-01-05T05:59:15.980Z,7.36
2023-01-05T06:01:43.731Z,7.34
2023-01-05T06:04:12.190Z,7.20
2023-01-05T06:06:39.979Z,7.19
2023-01-05T06:09:07.545Z,7.37
2023-01-05T06:11:35.403Z,7.48
2023-01-05T06:14:03.229Z,7.60
2023-01-05T06:16:30.843Z,7.68
2023-01-05T06:18:58.667Z,7.62
2023-01-05T06:21:26.150Z,7.71
2023-01-05T06:23:53.609Z,7.74
2023-01-05T06:26:21.155Z,7.66
2023-01-05T06:28:48.633Z,7.81
2023-01-05T06:31:16.149Z,7.92
2023-01-05T06:33:43.684Z,7.98
2023-01-05T06:36:11.355Z,7.89
2023-01-05T06:38:38.849Z,8.05
2023-01-05T06:41:06.539Z,7.94
2023-01-05T06:43:34.072Z,7.85
2023-01-05T06:46:01.726Z,7.96
2023-01-05T06:48:29.347Z,8.02
2023-01-05T06:50:56.876Z,8.08
2023-01-05T06:53:24.317Z,8.20
2023-01-05T06:55:51.759Z,8.27
2023-01-05T06:58:19.282Z,8.36
2023-01-05T07:00:46.832Z,8.50
2023-01-05T07:03:14.663Z,8.58
2023-01-05T07:05:42.860Z,8.70
2023-01-05T07:08:10.326Z,8.87
2023-01-05T07:10:37.878Z,8.86
2023-01-05T07:13:05.382Z,8.98
2023-01-05T07:15:32.937Z,9.15
2023-01-05T07:18:00.413Z,9.21
2023-01-05T07:20:28.091Z,9.41
2023-01-05T07:22:55.727Z,9.56
2023-01-05T07:25:23.446Z,9.71
2023-01-05T07:27:53.590Z,9.78
2023-01-05T07:30:21.003Z,9.93
2023-01-05T07:32:48.473Z,10.19
2023-01-05T07:35:16.198Z,10.29
2023-01-05T07:37:44.507Z,10.43
2023-01-05T07:40:12.669Z,10.76
2023-01-05T07:42:40.298Z,10.84
2023-01-05T07:45:10.469Z,10.92
2023-01-05T07:47:40.358Z,10.88
2023-01-05T07:50:08.616Z,11.02
2023-01-05T07:52:36.124Z,11.23
2023-01-05T07:55:04.624Z,11.41
2023-01-05T07:57:32.157Z,11.55
2023-01-05T08:00:00.145Z,11.42
2023-01-05T08:02:32.368Z,11.60
2023-01-05T08:05:03.519Z,11.87
2023-01-05T08:07:30.995Z,11.71
2023-01-05T08:10:18.083Z,11.76
2023-01-05T08:13:04.384Z,11.91
2023-01-05T08:15:31.948Z,11.98
2023-01-05T08:17:59.444Z,12.14
2023-01-05T08:20:26.978Z,12.25
2023-01-05T08:22:55.121Z,12.34
2023-01-05T08:25:22.849Z,12.77
2023-01-05T08:27:51.504Z,13.13
2023-01-05T08:30:19.033Z,13.07
2023-01-05T08:32:47.235Z,13.18
2023-01-05T08:35:14.761Z,13.38
2023-01-05T08:37:46.119Z,13.39
2023-01-05T08:40:13.773Z,13.87
2023-01-05T08:42:41.269Z,13.93
2023-01-05T08:45:10.270Z,14.16
2023-01-05T08:47:37.753Z,14.09
2023-01-05T08:50:06.324Z,14.23
2023-01-05T08:52:33.875Z,14.56
2023-01-05T08:55:02.634Z,14.49
2023-01-05T08:57:31.214Z,14.45
2023-01-05T08:59:58.660Z,14.66
2023-01-05T09:02:26.822Z,14.93
2023-01-05T09:04:54.587Z,15.13
2023-01-05T09:07:22.495Z,15.06
2023-01-05T09:09:49.974Z,15.31
2023-01-05T09:12:17.442Z,15.74
2023-01-05T09:14:45.004Z,16.31
2023-01-05T09:17:12.545Z,16.57
2023-01-05T09:19:40.123Z,16.90
2023-01-05T09:22:07.585Z,17.05
2023-01-05T09:24:35.096Z,17.34
2023-01-05T09:27:03.904Z,17.45
2023-01-05T09:29:31.542Z,17.55
2023-01-05T09:31:59.668Z,17.93
2023-01-05T09:34:27.334Z,18.18
2023-01-05T09:36:54.806Z,18.26
2023-01-05T09:39:22.247Z,18.14
2023-01-05T09:41:58.928Z,17.59
2023-01-05T09:44:29.678Z,17.40
2023-01-05T09:47:31.067Z,17.32
2023-01-05T09:50:00.657Z,17.45
2023-01-05T09:52:31.523Z,17.17
2023-01-05T09:55:18.995Z,17.57
2023-01-05T09:58:07.590Z,17.88
2023-01-05T10:00:45.117Z,17.73
2023-01-05T10:03:53.202Z,17.78
2023-01-05T10:06:16.919Z,17.61
2023-01-05T10:08:49.910Z,17.45
2023-01-05T10:11:58.454Z,16.95
2023-01-05T10:14:40.673Z,17.19
2023-01-05T10:20:38.460Z,17.08
2023-01-05T10:23:26.959Z,16.98
2023-01-05T10:26:50.986Z,16.78
2023-01-05T10:29:47.468Z,16.84
2023-01-05T10:32:32.329Z,16.75
2023-01-05T10:35:59.606Z,16.89
2023-01-05T10:38:58.923Z,16.71
2023-01-05T10:41:40.151Z,16.68
2023-01-05T10:44:41.669Z,16.49
2023-01-05T10:47:11.228Z,16.77
2023-01-05T10:49:42.539Z,16.46
2023-01-05T10:52:16.355Z,16.42
2023-01-05T10:54:56.453Z,16.71
2023-01-05T10:57:34.612Z,16.78
2023-01-05T11:00:08.288Z,17.48
2023-01-05T11:02:40.318Z,17.44
2023-01-05T11:05:10.744Z,17.15
2023-01-05T11:07:51.523Z,17.49
2023-01-05T11:10:25.029Z,17.65
2023-01-05T11:13:33.492Z,17.70
2023-01-05T11:16:13.348Z,17.35
2023-01-05T11:19:00.496Z,17.32
2023-01-05T11:21:43.535Z,18.06
2023-01-05T11:24:29.640Z,18.13
2023-01-05T11:27:03.757Z,17.81
2023-01-05T11:29:32.080Z,17.90
2023-01-05T11:32:06.405Z,17.82
2023-01-05T11:34:42.182Z,18.14
2023-01-05T11:37:12.485Z,18.53
2023-01-05T11:39:49.672Z,18.74
2023-01-05T11:42:27.916Z,19.19
2023-01-05T11:45:02.484Z,18.61
2023-01-05T11:47:57.998Z,18.55
2023-01-05T11:50:32.125Z,18.41
2023-01-05T11:53:02.447Z,18.57
2023-01-05T11:55:38.406Z,18.72
2023-01-05T11:58:20.801Z,19.30
2023-01-05T12:01:11.383Z,19.90
2023-01-05T12:04:04.758Z,19.68
2023-01-05T12:06:39.095Z,19.10
2023-01-05T12:09:37.815Z,19.23
2023-01-05T12:12:47.634Z,19.22
2023-01-05T12:15:51.588Z,19.67
2023-01-05T12:19:14.981Z,19.75
2023-01-05T12:22:28.339Z,19.97
2023-01-05T12:25:15.032Z,19.85
2023-01-05T12:28:35.579Z,20.23
2023-01-05T12:34:57.911Z,19.97
2023-01-05T12:37:45.928Z,19.82
2023-01-05T12:41:09.839Z,19.87
2023-01-05T12:44:50.878Z,20.16
2023-01-05T12:47:57.736Z,20.44
2023-01-05T12:50:48.506Z,20.77
2023-01-05T12:53:32.207Z,21.46
2023-01-05T12:56:19.684Z,21.95
2023-01-05T12:59:04.756Z,22.71
2023-01-05T13:01:39.422Z,22.73
2023-01-05T13:04:34.329Z,22.25
2023-01-05T13:07:19.670Z,21.42
2023-01-05T13:10:02.515Z,20.97
2023-01-05T13:12:32.892Z,20.77
2023-01-05T13:15:21.847Z,20.78
2023-01-05T13:17:52.069Z,20.47
2023-01-05T13:20:41.285Z,20.51
2023-01-05T13:23:33.650Z,21.18
2023-01-05T13:26:14.904Z,21.26
2023-01-05T13:28:42.940Z,21.38
2023-01-05T13:31:38.172Z,21.57
2023-01-05T13:34:38.018Z,21.75
2023-01-05T13:37:30.287Z,21.83
2023-01-05T13:40:12.838Z,21.08
2023-01-05T13:43:04.984Z,20.29
2023-01-05T13:46:08.749Z,19.49
2023-01-05T13:49:15.380Z,18.98
2023-01-05T13:52:03.200Z,18.85
2023-01-05T13:55:00.272Z,18.33
2023-01-05T13:57:38.546Z,18.03
2023-01-05T14:00:27.990Z,17.81
2023-01-05T14:03:29.776Z,17.68
2023-01-05T14:06:01.415Z,17.47
2023-01-05T14:08:46.648Z,17.45
2023-01-05T14:11:22.817Z,17.75
2023-01-05T14:14:08.635Z,18.13
2023-01-05T14:16:37.525Z,18.13
2023-01-05T14:19:52.823Z,17.68
2023-01-05T14:22:20.224Z,17.29
2023-01-05T14:24:49.072Z,17.15
2023-01-05T14:27:24.604Z,17.04
2023-01-05T14:29:55.506Z,16.95
2023-01-05T14:32:41.368Z,16.86
2023-01-05T14:35:37.171Z,16.62
2023-01-05T14:38:18.592Z,16.35
2023-01-05T14:40:52.890Z,16.23
2023-01-05T14:43:40.773Z,16.07
2023-01-05T14:46:15.453Z,15.85
2023-01-05T14:49:07.911Z,15.66
2023-01-05T14:51:38.763Z,15.64
2023-01-05T14:54:50.346Z,15.50
2023-01-05T14:57:27.181Z,15.35
2023-01-05T15:00:27.834Z,15.13
2023-01-05T15:03:40.531Z,14.82
2023-01-05T15:06:19.849Z,14.57
2023-01-05T15:09:25.526Z,14.44
2023-01-05T15:12:15.974Z,14.50
2023-01-05T15:15:23.828Z,14.42
2023-01-05T15:18:23.433Z,14.26
2023-01-05T15:21:18.429Z,14.22
2023-01-05T15:24:27.701Z,14.11
2023-01-05T15:27:22.486Z,13.97
2023-01-05T15:30:34.829Z,13.69
2023-01-05T15:33:18.487Z,13.65
2023-01-05T15:35:54.314Z,13.53
2023-01-05T15:38:26.340Z,13.52
2023-01-05T15:41:10.769Z,13.22
2023-01-05T15:43:41.605Z,13.14
2023-01-05T15:46:12.865Z,12.93
2023-01-05T15:48:46.649Z,12.79
2023-01-05T15:51:25.463Z,12.65
2023-01-05T15:54:05.604Z,12.66
2023-01-05T15:56:41.186Z,12.56
2023-01-05T15:59:33.003Z,12.57
2023-01-05T16:02:00.854Z,12.22
2023-01-05T16:04:28.495Z,12.09
2023-01-05T16:07:04.024Z,11.99
2023-01-05T16:09:36.074Z,11.80
2023-01-05T16:12:23.264Z,11.83
2023-01-05T16:15:01.777Z,11.74
2023-01-05T16:17:34.790Z,11.48
2023-01-05T16:20:15.546Z,11.50
2023-01-05T16:23:04.502Z,11.55
2023-01-05T16:25:50.981Z,11.62
2023-01-05T16:28:23.016Z,11.51
2023-01-05T16:30:53.983Z,11.34
2023-01-05T16:33:36.410Z,11.49
2023-01-05T16:36:21.123Z,11.48
2023-01-05T16:38:49.384Z,11.44
2023-01-05T16:41:28.065Z,11.32
2023-01-05T16:44:01.401Z,11.19
2023-01-05T16:46:37.313Z,11.36
2023-01-05T16:49:28.412Z,11.28
2023-01-05T16:52:02.761Z,11.33
2023-01-05T16:54:45.033Z,11.09
2023-01-05T16:58:03.466Z,10.93
2023-01-05T17:00:36.424Z,10.96
2023-01-05T17:03:32.289Z,11.09
2023-01-05T17:06:01.824Z,10.92
2023-01-05T17:08:36.349Z,10.80
2023-01-05T17:11:08.078Z,10.88
2023-01-05T17:13:49.231Z,10.93
2023-01-05T17:16:18.692Z,10.84
2023-01-05T17:18:47.589Z,10.89
2023-01-05T17:24:14.600Z,10.59
2023-01-05T17:26:46.637Z,10.67
2023-01-05T17:29:28.802Z,10.59
2023-01-05T17:31:57.340Z,10.60
2023-01-05T17:34:25.662Z,10.63
2023-01-05T17:36:57.774Z,10.66
2023-01-05T17:39:29.120Z,10.77
2023-01-05T17:42:18.427Z,10.69
2023-01-05T17:44:52.177Z,10.50
2023-01-05T17:47:20.902Z,10.43
2023-01-05T17:49:48.567Z,10.28
2023-01-05T17:52:16.095Z,10.16
2023-01-05T17:54:44.646Z,10.32
2023-01-05T17:57:19.092Z,10.07
2023-01-05T17:59:47.303Z,9.94
2023-01-05T18:02:16.466Z,9.88
2023-01-05T18:04:44.009Z,9.75
2023-01-05T18:07:12.230Z,9.53
2023-01-05T18:09:40.359Z,9.34
2023-01-05T18:12:11.828Z,9.31
2023-01-05T18:14:40.003Z,9.46
2023-01-05T18:17:08.691Z,9.21
2023-01-05T18:19:37.555Z,9.16
2023-01-05T18:22:07.235Z,9.02
2023-01-05T18:24:35.613Z,9.05
2023-01-05T18:27:07.038Z,8.98
2023-01-05T18:29:37.249Z,8.98
2023-01-05T18:32:06.935Z,9.04
2023-01-05T18:34:34.811Z,9.09
2023-01-05T18:37:06.338Z,9.15
2023-01-05T18:39:39.195Z,9.06
2023-01-05T18:42:07.214Z,9.04
2023-01-05T18:44:35.632Z,9.20
2023-01-05T18:47:03.193Z,9.09
2023-01-05T18:49:31.910Z,8.38
2023-01-05T18:52:00.065Z,8.07
2023-01-05T18:54:28.249Z,7.78
2023-01-05T18:56:56.982Z,7.59
2023-01-05T18:59:25.128Z,7.70
2023-01-05T19:01:52.789Z,7.73
2023-01-05T19:04:20.922Z,7.68
2023-01-05T19:06:48.506Z,7.89
2023-01-05T19:09:16.197Z,7.78
2023-01-05T19:11:49.219Z,7.71
2023-01-05T19:14:25.142Z,7.68
2023-01-05T19:16:54.690Z,7.74
2023-01-05T19:19:23.097Z,7.83
2023-01-05T19:22:11.385Z,7.91
2023-01-05T19:24:43.513Z,7.86
2023-01-05T19:27:11.187Z,7.91
2023-01-05T19:29:42.205Z,7.93
2023-01-05T19:32:12.608Z,8.05
2023-01-05T19:34:44.588Z,8.02
2023-01-05T19:37:16.228Z,8.08
2023-01-05T19:39:49.231Z,7.85
2023-01-05T19:42:39.430Z,8.45
2023-01-05T19:45:22.736Z,7.72
2023-01-05T19:47:50.365Z,7.49
2023-01-05T19:50:19.107Z,7.57
2023-01-05T19:52:46.643Z,7.40
2023-01-05T19:55:19.503Z,7.41
2023-01-05T19:57:53.453Z,7.46
2023-01-05T20:00:21.529Z,7.75
2023-01-05T20:02:49.107Z,7.83
2023-01-05T20:05:17.471Z,7.74
2023-01-05T20:07:50.020Z,7.54
2023-01-05T20:10:23.635Z,7.42
2023-01-05T20:12:53.976Z,7.37
2023-01-05T20:15:25.573Z,7.28
2023-01-05T20:17:53.631Z,7.38
2023-01-05T20:20:23.949Z,7.42
2023-01-05T20:22:54.498Z,7.82
2023-01-05T20:25:26.071Z,7.34
2023-01-05T20:27:58.754Z,6.97
2023-01-05T20:30:29.392Z,6.77
2023-01-05T20:32:58.369Z,6.76
2023-01-05T20:35:29.417Z,6.70
2023-01-05T20:38:01.418Z,6.70
2023-01-05T20:40:31.117Z,6.58
2023-01-05T20:43:00.457Z,6.48
2023-01-05T20:45:30.786Z,6.41
2023-01-05T20:48:00.078Z,6.58
2023-01-05T20:50:32.135Z,6.87
2023-01-05T20:53:01.063Z,6.81
2023-01-05T20:55:28.633Z,7.07
2023-01-05T20:57:58.575Z,6.93
2023-01-05T21:00:26.423Z,6.99
2023-01-05T21:02:56.591Z,6.82
2023-01-05T21:05:28.985Z,6.73
2023-01-05T21:07:56.641Z,6.91
2023-01-05T21:10:25.040Z,6.73
2023-01-05T21:12:54.947Z,6.81
2023-01-05T21:15:56.174Z,6.92
2023-01-05T21:18:25.206Z,6.97
2023-01-05T21:20:55.877Z,7.00
2023-01-05T21:23:48.468Z,6.94
2023-01-05T21:26:19.503Z,7.00
2023-01-05T21:28:56.943Z,6.86
2023-01-05T21:31:32.158Z,6.78
2023-01-05T21:34:01.940Z,6.83
2023-01-05T21:36:35.028Z,6.84
2023-01-05T21:39:09.289Z,6.86
2023-01-05T21:41:57.600Z,6.84
2023-01-05T21:44:26.356Z,6.84
2023-01-05T21:46:54.285Z,6.69
2023-01-05T21:49:24.259Z,6.55
2023-01-05T21:52:10.307Z,6.71
2023-01-05T21:54:57.906Z,6.63
2023-01-05T21:57:27.083Z,6.66
2023-01-05T21:59:55.832Z,6.49
2023-01-05T22:02:23.315Z,6.64
2023-01-05T22:04:50.937Z,6.53
2023-01-05T22:07:18.381Z,6.60
2023-01-05T22:09:46.126Z,6.54
2023-01-05T22:12:13.591Z,6.47
2023-01-05T22:14:41.177Z,6.80
2023-01-05T22:17:10.248Z,6.70
2023-01-05T22:19:38.433Z,6.87
2023-01-05T22:22:05.962Z,6.92
2023-01-05T22:24:33.648Z,6.92
2023-01-05T22:27:01.178Z,7.15
2023-01-05T22:29:28.747Z,7.33
2023-01-05T22:32:00.540Z,7.28
2023-01-05T22:34:29.636Z,7.29
2023-01-05T22:36:57.278Z,7.35
2023-01-05T22:39:24.921Z,7.16
2023-01-05T22:41:52.457Z,7.28
2023-01-05T22:44:20.080Z,7.23
2023-01-05T22:46:47.543Z,7.38
2023-01-05T22:49:16.639Z,7.37
2023-01-05T22:51:46.246Z,7.70
2023-01-05T22:54:14.198Z,7.88
2023-01-05T22:56:41.701Z,7.93
2023-01-05T22:59:09.286Z,7.82
2023-01-05T23:01:43.245Z,7.81
2023-01-05T23:04:15.033Z,7.51
2023-01-05T23:06:43.692Z,7.38
2023-01-05T23:09:15.209Z,7.39
2023-01-05T23:11:46.154Z,7.31
2023-01-05T23:14:14.988Z,7.21
2023-01-05T23:16:42.589Z,7.11
2023-01-05T23:19:10.336Z,7.30
2023-01-05T23:21:37.915Z,7.30
2023-01-05T23:24:06.098Z,7.36
2023-01-05T23:26:33.680Z,7.18
2023-01-05T23:29:01.270Z,7.34
2023-01-05T23:31:29.115Z,7.56
2023-01-05T23:33:58.085Z,7.44
2023-01-05T23:36:25.834Z,7.75
2023-01-05T23:38:53.461Z,7.65
2023-01-05T23:41:20.968Z,7.50
2023-01-05T23:43:48.568Z,7.68
2023-01-05T23:46:23.702Z,7.61
2023-01-05T23:48:52.611Z,7.43
2023-01-05T23:51:21.290Z,7.36
2023-01-05T23:53:52.211Z,7.73
2023-01-05T23:56:29.683Z,7.73
2023-01-05T23:59:06.836Z,7.74
